Time;durP1;ratioP1;P1;durP2;ratioP2;P2;SDS_P1;SDS_P2;PMS_P1;PMS_P2;Temp;Humidity;BMP_temperature;BMP_pressure;BME280_temperature;BME280_humidity;BME280_pressure;Samples;Min_cycle;Max_cycle;Signal;HPM_P1;HPM_P2
2022/04/16 00:03:25;;;;;;;;;;;22.00;34.60;;;;;;8329816;28;19917;-46
2022/04/16 00:07:26;;;;;;;;;;;22.00;34.70;;;;;;8329650;28;19913;-45
2022/04/16 00:11:26;;;;;;;;;;;21.90;34.60;;;;;;8329541;28;19940;-45
2022/04/16 00:15:27;;;;;;;;;;;21.90;34.60;;;;;;8329981;28;19924;-46
2022/04/16 00:19:27;;;;;;;;;;;21.90;34.60;;;;;;8329814;28;19921;-46
2022/04/16 00:23:27;;;;;;;;;;;21.90;34.60;;;;;;8329319;28;20012;-45
2022/04/16 00:27:28;;;;;;;;;;;21.90;34.60;;;;;;8329846;28;19917;-47
2022/04/16 00:31:29;;;;;;;;;;;21.90;34.60;;;;;;8331282;28;19924;-46
2022/04/16 00:35:30;;;;;;;;;;;21.90;34.60;;;;;;8335376;28;19924;-47
2022/04/16 00:39:30;;;;;;;;;;;21.90;34.60;;;;;;8335904;28;19996;-46
2022/04/16 00:43:31;;;;;;;;;;;21.90;34.70;;;;;;8335560;28;19917;-47
2022/04/16 00:47:31;;;;;;;;;;;21.90;34.60;;;;;;8335030;28;19913;-48
2022/04/16 00:51:32;;;;;;;;;;;21.80;34.60;;;;;;8335178;28;20381;-47
2022/04/16 00:55:36;;;;;;;;;;;21.80;34.60;;;;;;8335114;28;19917;-47
2022/04/16 00:59:37;;;;;;;;;;;21.80;34.60;;;;;;8334696;28;20260;-48
2022/04/16 01:03:39;;;;;;;;;;;21.80;34.60;;;;;;8339855;28;20003;-46
2022/04/16 01:07:52;;;;;;;;;;;21.80;34.70;;;;;;8367785;28;19959;-46
2022/04/16 01:11:52;;;;;;;;;;;21.80;34.70;;;;;;8367364;28;19963;-46
2022/04/16 01:15:53;;;;;;;;;;;21.80;34.70;;;;;;8367504;28;19925;-45
2022/04/16 01:19:53;;;;;;;;;;;21.80;34.60;;;;;;8367549;28;19916;-47
2022/04/16 01:23:53;;;;;;;;;;;21.80;34.70;;;;;;8366789;28;19921;-46
2022/04/16 01:27:54;;;;;;;;;;;21.70;34.70;;;;;;8367282;28;19968;-46
2022/04/16 01:31:54;;;;;;;;;;;21.70;34.70;;;;;;8367227;28;19970;-46
2022/04/16 01:35:56;;;;;;;;;;;21.70;34.70;;;;;;8366485;28;19920;-46
2022/04/16 01:39:58;;;;;;;;;;;21.70;34.60;;;;;;8367038;28;19924;-46
2022/04/16 01:43:58;;;;;;;;;;;21.70;34.70;;;;;;8366552;28;19923;-49
2022/04/16 01:48:00;;;;;;;;;;;21.70;34.70;;;;;;8366272;28;19921;-47
2022/04/16 01:52:01;;;;;;;;;;;21.70;34.70;;;;;;8366641;28;19924;-47
2022/04/16 01:56:01;;;;;;;;;;;21.70;34.80;;;;;;8366267;28;19917;-46
2022/04/16 02:00:03;;;;;;;;;;;21.70;34.70;;;;;;8365848;28;19921;-45
2022/04/16 02:04:04;;;;;;;;;;;21.70;34.80;;;;;;8365864;28;19913;-46
2022/04/16 02:08:06;;;;;;;;;;;21.70;34.70;;;;;;8366065;28;20427;-47
2022/04/16 02:12:07;;;;;;;;;;;21.60;34.70;;;;;;8365374;28;20321;-47
2022/04/16 02:16:07;;;;;;;;;;;21.60;34.70;;;;;;8365484;28;20373;-46
2022/04/16 02:20:09;;;;;;;;;;;21.60;34.70;;;;;;8365650;28;19913;-48
2022/04/16 02:24:10;;;;;;;;;;;21.60;34.60;;;;;;8364675;28;20355;-46
2022/04/16 02:28:11;;;;;;;;;;;21.60;34.60;;;;;;8365578;28;20020;-46
2022/04/16 02:32:11;;;;;;;;;;;21.60;34.70;;;;;;8365206;28;19917;-48
2022/04/16 02:36:12;;;;;;;;;;;21.60;34.70;;;;;;8364530;28;19990;-46
2022/04/16 02:40:12;;;;;;;;;;;21.50;34.60;;;;;;8364700;28;19916;-48
2022/04/16 02:48:32;;;;;;;;;;;21.50;34.70;;;;;;8364843;28;19932;-46
2022/04/16 02:52:36;;;;;;;;;;;21.50;34.70;;;;;;8364814;28;20067;-46
2022/04/16 02:56:37;;;;;;;;;;;21.50;34.70;;;;;;8363393;28;19916;-48
2022/04/16 03:00:37;;;;;;;;;;;21.50;34.70;;;;;;8364513;28;19966;-46
2022/04/16 03:04:38;;;;;;;;;;;21.50;34.70;;;;;;8364058;28;19913;-47
2022/04/16 03:08:38;;;;;;;;;;;21.50;34.70;;;;;;8363309;28;19947;-46
2022/04/16 03:12:43;;;;;;;;;;;21.50;34.70;;;;;;8364092;28;19916;-48
2022/04/16 03:21:04;;;;;;;;;;;21.40;34.70;;;;;;8363222;28;19923;-46
2022/04/16 03:25:07;;;;;;;;;;;21.50;34.70;;;;;;8363860;28;19913;-46
2022/04/16 03:29:07;;;;;;;;;;;21.40;34.70;;;;;;8363375;28;19949;-46
2022/04/16 03:33:11;;;;;;;;;;;21.50;34.70;;;;;;8363074;28;19917;-46
2022/04/16 03:37:11;;;;;;;;;;;21.40;34.70;;;;;;8363229;28;20004;-46
2022/04/16 03:41:12;;;;;;;;;;;21.40;34.60;;;;;;8363233;28;19991;-45
2022/04/16 03:45:23;;;;;;;;;;;21.40;34.60;;;;;;8362590;28;20387;-46
2022/04/16 03:49:23;;;;;;;;;;;21.40;34.70;;;;;;8363195;28;19925;-45
2022/04/16 03:53:23;;;;;;;;;;;21.40;34.60;;;;;;8362865;28;19921;-46
2022/04/16 04:01:45;;;;;;;;;;;21.40;34.60;;;;;;8363309;28;19928;-46
2022/04/16 04:05:48;;;;;;;;;;;21.40;34.60;;;;;;8362951;28;19917;-46
2022/04/16 04:09:49;;;;;;;;;;;21.40;34.60;;;;;;8368914;28;20281;-47
2022/04/16 04:13:49;;;;;;;;;;;21.40;34.60;;;;;;8336659;28;20000;-48
2022/04/16 04:17:50;;;;;;;;;;;21.40;34.60;;;;;;8335798;28;20005;-45
2022/04/16 04:21:50;;;;;;;;;;;21.40;34.60;;;;;;8336434;28;20378;-45
2022/04/16 04:25:51;;;;;;;;;;;21.40;34.60;;;;;;8336003;28;19925;-47
2022/04/16 04:29:51;;;;;;;;;;;21.40;34.60;;;;;;8335410;28;20004;-47
2022/04/16 04:33:52;;;;;;;;;;;21.40;34.70;;;;;;8335963;28;19913;-48
2022/04/16 04:37:53;;;;;;;;;;;21.40;34.70;;;;;;8335757;28;19940;-46
2022/04/16 04:41:53;;;;;;;;;;;21.40;34.70;;;;;;8335046;28;20027;-46
2022/04/16 04:45:54;;;;;;;;;;;21.30;34.60;;;;;;8335658;28;19918;-45
2022/04/16 04:49:54;;;;;;;;;;;21.30;34.70;;;;;;8335399;28;20440;-46
2022/04/16 04:53:55;;;;;;;;;;;21.30;34.70;;;;;;8334959;28;20393;-45
2022/04/16 04:57:55;;;;;;;;;;;21.30;34.80;;;;;;8334941;28;19924;-49
2022/04/16 05:01:56;;;;;;;;;;;21.30;34.80;;;;;;8332933;28;19917;-48
2022/04/16 05:05:56;;;;;;;;;;;21.30;34.70;;;;;;8332365;28;19963;-47
2022/04/16 05:09:56;;;;;;;;;;;21.30;34.80;;;;;;8333052;28;19925;-47
2022/04/16 05:13:57;;;;;;;;;;;21.30;34.70;;;;;;8333034;28;20361;-47
2022/04/16 05:17:57;;;;;;;;;;;21.20;34.70;;;;;;8331733;28;19941;-49
2022/04/16 05:21:58;;;;;;;;;;;21.20;34.70;;;;;;8332459;28;19971;-47
2022/04/16 05:25:58;;;;;;;;;;;21.20;34.70;;;;;;8332465;28;19921;-46
2022/04/16 05:30:06;;;;;;;;;;;21.20;34.70;;;;;;8331693;28;19971;-47
2022/04/16 05:34:19;;;;;;;;;;;21.20;34.70;;;;;;8332666;28;19920;-47
2022/04/16 05:38:19;;;;;;;;;;;21.20;34.70;;;;;;8332118;28;20360;-46
2022/04/16 05:42:20;;;;;;;;;;;21.20;34.70;;;;;;8331602;28;19925;-47
2022/04/16 05:46:20;;;;;;;;;;;21.20;34.70;;;;;;8332076;28;20011;-51
2022/04/16 05:50:21;;;;;;;;;;;21.20;34.70;;;;;;8331841;28;19925;-48
2022/04/16 05:54:21;;;;;;;;;;;21.20;34.70;;;;;;8331473;28;19940;-50
2022/04/16 05:58:23;;;;;;;;;;;21.20;35.20;;;;;;8271112;28;1728165;-48
2022/04/16 06:02:23;;;;;;;;;;;21.30;34.60;;;;;;8332603;28;19928;-47
2022/04/16 06:06:24;;;;;;;;;;;21.30;34.60;;;;;;8332895;28;19917;-49
2022/04/16 06:10:24;;;;;;;;;;;21.30;34.60;;;;;;8332713;28;19925;-47
2022/04/16 06:14:25;;;;;;;;;;;21.30;34.50;;;;;;8332611;28;19913;-46
2022/04/16 06:18:26;;;;;;;;;;;21.40;34.40;;;;;;8332500;28;19921;-46
2022/04/16 06:22:26;;;;;;;;;;;21.40;34.40;;;;;;8332341;28;19979;-46
2022/04/16 06:26:27;;;;;;;;;;;21.40;34.30;;;;;;8331932;28;19971;-49
2022/04/16 06:30:27;;;;;;;;;;;21.50;34.10;;;;;;8331575;28;19925;-48
2022/04/16 06:34:27;;;;;;;;;;;21.60;34.10;;;;;;8332609;28;19917;-51
2022/04/16 06:38:29;;;;;;;;;;;21.60;34.00;;;;;;8331361;28;19924;-47
2022/04/16 06:42:30;;;;;;;;;;;21.70;33.90;;;;;;8331801;28;20374;-46
2022/04/16 06:46:30;;;;;;;;;;;21.80;33.80;;;;;;8331876;28;20012;-47
2022/04/16 06:50:31;;;;;;;;;;;21.80;33.60;;;;;;8331099;28;19971;-51
2022/04/16 06:54:31;;;;;;;;;;;21.90;33.30;;;;;;8331684;28;19920;-46
2022/04/16 06:58:32;;;;;;;;;;;22.00;33.20;;;;;;8331360;28;20362;-46
2022/04/16 07:02:32;;;;;;;;;;;22.00;33.20;;;;;;8330515;28;19917;-48
2022/04/16 07:06:33;;;;;;;;;;;22.00;33.20;;;;;;8331099;28;20339;-46
2022/04/16 07:10:33;;;;;;;;;;;22.10;33.10;;;;;;8330082;28;19948;-47
2022/04/16 07:14:34;;;;;;;;;;;22.10;33.00;;;;;;8330631;28;19920;-47
2022/04/16 07:18:34;;;;;;;;;;;22.10;33.10;;;;;;8330879;28;19918;-47
2022/04/16 07:22:37;;;;;;;;;;;22.00;33.20;;;;;;8330432;28;19970;-47
2022/04/16 07:26:38;;;;;;;;;;;21.90;33.30;;;;;;8329863;28;19917;-46
2022/04/16 07:30:38;;;;;;;;;;;21.90;33.40;;;;;;8330276;28;19928;-45
2022/04/16 07:34:38;;;;;;;;;;;21.90;33.60;;;;;;8330533;28;20492;-47
2022/04/16 07:38:39;;;;;;;;;;;21.90;33.60;;;;;;8329897;28;20004;-47
2022/04/16 07:42:39;;;;;;;;;;;21.90;33.70;;;;;;8330327;28;19917;-48
2022/04/16 07:46:40;;;;;;;;;;;21.80;33.60;;;;;;8330189;28;19917;-51
2022/04/16 07:50:40;;;;;;;;;;;21.80;33.70;;;;;;8329551;28;19929;-49
2022/04/16 07:54:41;;;;;;;;;;;21.70;33.70;;;;;;8330497;28;19960;-48
2022/04/16 07:58:41;;;;;;;;;;;21.70;33.80;;;;;;8329986;28;19928;-47
2022/04/16 08:02:41;;;;;;;;;;;21.70;33.70;;;;;;8329399;28;19923;-48
2022/04/16 08:06:42;;;;;;;;;;;21.70;33.80;;;;;;8330074;28;19940;-49
2022/04/16 08:10:42;;;;;;;;;;;21.60;33.90;;;;;;8329605;28;20390;-46
2022/04/16 08:14:43;;;;;;;;;;;21.60;34.00;;;;;;8329351;28;19975;-46
2022/04/16 08:18:43;;;;;;;;;;;21.60;34.00;;;;;;8329474;28;19928;-46
2022/04/16 08:22:46;;;;;;;;;;;21.60;34.00;;;;;;8329534;28;19917;-46
2022/04/16 08:26:46;;;;;;;;;;;21.60;34.00;;;;;;8328655;28;19921;-47
2022/04/16 08:30:47;;;;;;;;;;;21.60;34.00;;;;;;8329104;28;19926;-47
2022/04/16 08:34:47;;;;;;;;;;;21.60;34.00;;;;;;8329446;28;19920;-45
2022/04/16 08:38:48;;;;;;;;;;;21.60;34.00;;;;;;8329029;28;20404;-47
2022/04/16 08:42:49;;;;;;;;;;;21.60;34.10;;;;;;8329106;28;19952;-46
2022/04/16 08:46:49;;;;;;;;;;;21.70;34.10;;;;;;8329228;28;19917;-45
2022/04/16 08:50:49;;;;;;;;;;;21.70;34.10;;;;;;8328682;28;19921;-46
2022/04/16 08:54:50;;;;;;;;;;;21.70;34.10;;;;;;8334060;28;19999;-47
2022/04/16 08:58:51;;;;;;;;;;;21.70;34.10;;;;;;8334794;28;19927;-47
2022/04/16 09:02:53;;;;;;;;;;;21.70;34.10;;;;;;8334221;28;20401;-46
2022/04/16 09:06:55;;;;;;;;;;;21.70;34.10;;;;;;8334515;28;19921;-47
2022/04/16 09:11:10;;;;;;;;;;;21.80;34.00;;;;;;8334904;28;20293;-46
2022/04/16 09:15:11;;;;;;;;;;;21.70;34.00;;;;;;8334166;28;20373;-47
2022/04/16 09:19:21;;;;;;;;;;;21.80;34.10;;;;;;8360195;28;19971;-46
2022/04/16 09:23:22;;;;;;;;;;;21.80;34.00;;;;;;8369477;28;19916;-45
2022/04/16 09:27:22;;;;;;;;;;;21.80;34.00;;;;;;8366450;28;20285;-47
2022/04/16 09:31:27;;;;;;;;;;;21.80;34.00;;;;;;8366767;28;19925;-49
2022/04/16 09:35:28;;;;;;;;;;;21.80;34.00;;;;;;8366530;28;19992;-48
2022/04/16 09:39:29;;;;;;;;;;;21.80;34.10;;;;;;8366846;28;20037;-47
2022/04/16 09:43:36;;;;;;;;;;;21.80;34.20;;;;;;8366507;28;19963;-48
2022/04/16 09:47:36;;;;;;;;;;;21.80;34.10;;;;;;8365788;28;19916;-47
2022/04/16 09:51:37;;;;;;;;;;;21.80;34.00;;;;;;8366188;28;20305;-48
2022/04/16 09:55:38;;;;;;;;;;;21.80;34.00;;;;;;8366300;28;20020;-48
2022/04/16 09:59:41;;;;;;;;;;;21.80;34.10;;;;;;8365747;28;20009;-47
2022/04/16 10:03:42;;;;;;;;;;;21.80;34.20;;;;;;8364865;28;19960;-47
2022/04/16 10:07:45;;;;;;;;;;;21.80;34.20;;;;;;8350888;28;19924;-49
2022/04/16 10:16:19;;;;;;;;;;;21.80;34.20;;;;;;8333148;28;19959;-52
2022/04/16 10:20:20;;;;;;;;;;;21.80;34.20;;;;;;8332507;28;19921;-48
2022/04/16 10:24:25;;;;;;;;;;;21.90;34.10;;;;;;8331903;28;19921;-47
2022/04/16 10:28:25;;;;;;;;;;;21.90;34.10;;;;;;8332203;28;20361;-48
2022/04/16 10:32:38;;;;;;;;;;;21.90;34.00;;;;;;8331632;28;19917;-46
2022/04/16 10:36:50;;;;;;;;;;;21.90;34.00;;;;;;8331789;28;19988;-47
2022/04/16 10:40:57;;;;;;;;;;;21.90;34.00;;;;;;8397141;28;20317;-49
2022/04/16 10:45:09;;;;;;;;;;;21.90;34.00;;;;;;8341618;28;19917;-47
2022/04/16 10:49:10;;;;;;;;;;;21.90;34.00;;;;;;8331706;28;20006;-47
2022/04/16 10:53:10;;;;;;;;;;;21.90;34.00;;;;;;8331247;28;19924;-46
2022/04/16 10:57:19;;;;;;;;;;;21.90;34.00;;;;;;8330676;28;19917;-45
2022/04/16 11:01:24;;;;;;;;;;;21.90;34.00;;;;;;8331678;28;19974;-46
2022/04/16 11:05:33;;;;;;;;;;;22.00;34.00;;;;;;8330515;28;19921;-48
2022/04/16 11:09:33;;;;;;;;;;;22.00;34.00;;;;;;8330835;28;19947;-48
2022/04/16 11:13:35;;;;;;;;;;;22.00;33.90;;;;;;8330737;28;19917;-47
2022/04/16 11:17:36;;;;;;;;;;;22.00;33.80;;;;;;8329897;28;20366;-47
2022/04/16 11:21:37;;;;;;;;;;;22.10;33.80;;;;;;8330980;28;19917;-48
2022/04/16 11:34:27;;;;;;;;;;;22.10;33.70;;;;;;8335664;28;19939;-47
2022/04/16 11:38:29;;;;;;;;;;;22.10;33.70;;;;;;8329822;28;19917;-48
2022/04/16 11:42:30;;;;;;;;;;;22.10;33.50;;;;;;8330085;28;19913;-47
2022/04/16 11:46:37;;;;;;;;;;;22.20;33.60;;;;;;8330185;28;20285;-48
2022/04/16 11:50:38;;;;;;;;;;;22.20;33.50;;;;;;8329420;28;19925;-48
2022/04/16 11:54:39;;;;;;;;;;;22.30;33.50;;;;;;8330033;28;20050;-47
2022/04/16 11:58:39;;;;;;;;;;;22.20;33.40;;;;;;8330136;28;19921;-46
2022/04/16 12:02:42;;;;;;;;;;;22.30;33.40;;;;;;8329294;28;19917;-45
2022/04/16 12:06:42;;;;;;;;;;;22.30;33.30;;;;;;8330190;28;19915;-47
2022/04/16 12:10:45;;;;;;;;;;;22.30;33.40;;;;;;8329727;28;20347;-47
2022/04/16 12:14:46;;;;;;;;;;;22.30;33.40;;;;;;8329049;28;19971;-47
2022/04/16 12:18:48;;;;;;;;;;;22.30;33.30;;;;;;8329649;28;20286;-46
2022/04/16 12:23:00;;;;;;;;;;;22.30;33.50;;;;;;8329449;28;20635;-49
2022/04/16 12:27:01;;;;;;;;;;;22.30;33.30;;;;;;8329960;28;19913;-47
2022/04/16 12:31:02;;;;;;;;;;;22.30;33.30;;;;;;8335607;28;20376;-47
2022/04/16 12:35:02;;;;;;;;;;;22.30;33.30;;;;;;8335766;28;20313;-47
2022/04/16 12:39:03;;;;;;;;;;;22.30;33.30;;;;;;8335103;28;20008;-48
2022/04/16 12:43:04;;;;;;;;;;;22.30;33.30;;;;;;8335663;28;19928;-47
2022/04/16 12:47:04;;;;;;;;;;;22.30;33.30;;;;;;8335648;28;19918;-47
2022/04/16 12:51:05;;;;;;;;;;;22.30;33.30;;;;;;8334441;28;19925;-48
2022/04/16 12:55:06;;;;;;;;;;;22.40;33.40;;;;;;8335275;28;19917;-47
2022/04/16 12:59:07;;;;;;;;;;;22.30;33.30;;;;;;8334996;28;20362;-49
2022/04/16 13:03:07;;;;;;;;;;;22.40;33.30;;;;;;8334039;28;19967;-48
2022/04/16 13:07:08;;;;;;;;;;;22.40;33.40;;;;;;8335049;28;20444;-49
2022/04/16 13:11:09;;;;;;;;;;;22.40;33.30;;;;;;8333593;28;20378;-47
2022/04/16 13:15:10;;;;;;;;;;;22.40;33.30;;;;;;8334074;28;19956;-45
2022/04/16 13:19:10;;;;;;;;;;;22.40;33.30;;;;;;8334136;28;19928;-48
2022/04/16 13:23:10;;;;;;;;;;;22.40;33.30;;;;;;8334171;28;19917;-47
2022/04/16 13:27:11;;;;;;;;;;;22.40;33.30;;;;;;8333769;28;19920;-46
2022/04/16 13:31:11;;;;;;;;;;;22.30;33.30;;;;;;8334092;28;19925;-48
2022/04/16 13:35:12;;;;;;;;;;;22.40;33.30;;;;;;8334001;28;19929;-46
2022/04/16 13:41:38;;;;;;;;;;;22.40;33.50;;;;;;8333026;28;20428;-46
2022/04/16 13:43:33;;;;;;;;;;;22.40;33.50;;;;;;8333504;28;20289;-46
2022/04/16 13:47:35;;;;;;;;;;;22.40;33.50;;;;;;8333354;28;20012;-46
2022/04/16 13:51:36;;;;;;;;;;;22.40;33.40;;;;;;8333284;28;19925;-47
2022/04/16 13:55:36;;;;;;;;;;;22.40;33.40;;;;;;8333217;28;20321;-47
2022/04/16 13:59:37;;;;;;;;;;;22.30;33.50;;;;;;8333185;28;19922;-47
2022/04/16 14:03:37;;;;;;;;;;;22.40;33.50;;;;;;8333038;28;20401;-48
2022/04/16 14:07:38;;;;;;;;;;;22.40;33.40;;;;;;8333133;28;19913;-47
2022/04/16 14:11:39;;;;;;;;;;;22.40;33.40;;;;;;8332216;28;19925;-47
2022/04/16 14:15:40;;;;;;;;;;;22.40;33.50;;;;;;8332720;28;20039;-47
2022/04/16 14:19:42;;;;;;;;;;;22.40;33.60;;;;;;8332609;28;20271;-47
2022/04/16 14:23:42;;;;;;;;;;;22.40;33.50;;;;;;8331955;28;20263;-48
2022/04/16 14:27:43;;;;;;;;;;;22.40;33.40;;;;;;8332588;28;19913;-45
2022/04/16 14:31:44;;;;;;;;;;;22.40;33.30;;;;;;8332421;28;19929;-45
2022/04/16 14:35:47;;;;;;;;;;;22.40;33.40;;;;;;8331884;28;19917;-47
2022/04/16 14:39:47;;;;;;;;;;;22.30;33.50;;;;;;8332353;28;19917;-45
2022/04/16 14:43:48;;;;;;;;;;;22.40;33.50;;;;;;8332011;28;19925;-47
2022/04/16 14:47:49;;;;;;;;;;;22.40;33.40;;;;;;8331295;28;19975;-46
2022/04/16 14:51:51;;;;;;;;;;;22.30;33.50;;;;;;8356343;28;19917;-46
2022/04/16 14:55:52;;;;;;;;;;;22.30;33.40;;;;;;8349297;28;19948;-46
2022/04/16 14:59:52;;;;;;;;;;;22.10;31.50;;;;;;8352355;28;19929;-45
2022/04/16 15:03:52;;;;;;;;;;;21.90;31.20;;;;;;8349603;28;19983;-44
2022/04/16 15:07:53;;;;;;;;;;;21.60;30.30;;;;;;8344238;28;19913;-47
2022/04/16 15:11:55;;;;;;;;;;;21.40;31.30;;;;;;8343347;28;20301;-46
2022/04/16 15:15:56;;;;;;;;;;;21.30;30.30;;;;;;8345827;28;19947;-45
2022/04/16 15:19:56;;;;;;;;;;;21.10;30.10;;;;;;8327204;28;19964;-46
2022/04/16 15:23:57;;;;;;;;;;;21.10;30.60;;;;;;8324660;28;19978;-47
2022/04/16 15:27:57;;;;;;;;;;;21.00;30.90;;;;;;8343559;28;20354;-48
2022/04/16 15:31:58;;;;;;;;;;;21.00;30.30;;;;;;8350889;28;19923;-48
2022/04/16 15:35:58;;;;;;;;;;;20.70;30.20;;;;;;8334793;28;19917;-46
2022/04/16 15:39:59;;;;;;;;;;;20.60;30.70;;;;;;8337318;28;20366;-47
2022/04/16 15:44:03;;;;;;;;;;;20.60;30.40;;;;;;8336745;28;19940;-47
2022/04/16 15:48:04;;;;;;;;;;;20.40;30.00;;;;;;8327152;28;20043;-45
2022/04/16 15:52:05;;;;;;;;;;;20.40;30.60;;;;;;8341087;28;19974;-45
2022/04/16 15:56:06;;;;;;;;;;;20.20;30.40;;;;;;8346528;28;19932;-50
2022/04/16 16:00:08;;;;;;;;;;;20.00;30.00;;;;;;8335554;28;19921;-46
2022/04/16 16:04:55;;;;;;;;;;;20.00;30.50;;;;;;8360405;28;19921;-47
2022/04/16 16:08:29;;;;;;;;;;;20.00;30.60;;;;;;8335203;28;19929;-46
2022/04/16 16:12:30;;;;;;;;;;;20.10;30.50;;;;;;8352908;28;19917;-47
2022/04/16 16:16:30;;;;;;;;;;;20.00;30.50;;;;;;8344963;28;20485;-43
2022/04/16 16:20:31;;;;;;;;;;;20.20;30.60;;;;;;8343019;28;19913;-44
2022/04/16 16:24:31;;;;;;;;;;;20.20;30.10;;;;;;8342371;28;19924;-46
2022/04/16 16:28:32;;;;;;;;;;;20.20;30.20;;;;;;8335904;28;20305;-46
2022/04/16 16:32:33;;;;;;;;;;;20.20;30.00;;;;;;8342423;28;19925;-43
2022/04/16 16:36:34;;;;;;;;;;;20.20;30.10;;;;;;8347050;28;19924;-43
2022/04/16 16:40:34;;;;;;;;;;;20.20;30.20;;;;;;8365120;28;19929;-44
2022/04/16 16:44:36;;;;;;;;;;;20.20;29.90;;;;;;8340117;28;20393;-42
2022/04/16 16:48:37;;;;;;;;;;;20.30;29.90;;;;;;8335450;28;20413;-43
2022/04/16 16:52:38;;;;;;;;;;;20.20;29.40;;;;;;8340374;28;19925;-44
2022/04/16 16:56:38;;;;;;;;;;;20.20;30.00;;;;;;8348069;28;20019;-42
2022/04/16 17:00:39;;;;;;;;;;;20.20;30.20;;;;;;8348958;28;20301;-42
2022/04/16 17:08:59;;;;;;;;;;;20.20;31.00;;;;;;8352739;28;19928;-43
2022/04/16 17:13:00;;;;;;;;;;;20.30;31.40;;;;;;8365386;28;20408;-43
2022/04/16 17:21:20;;;;;;;;;;;20.30;30.80;;;;;;8346055;28;19924;-43
2022/04/16 17:25:21;;;;;;;;;;;20.20;30.40;;;;;;8349307;28;19920;-44
2022/04/16 17:29:22;;;;;;;;;;;20.20;30.00;;;;;;8347990;28;19929;-43
2022/04/16 17:33:23;;;;;;;;;;;20.20;30.20;;;;;;8344523;28;19929;-45
2022/04/16 17:37:23;;;;;;;;;;;20.10;29.80;;;;;;8352125;28;19978;-46
2022/04/16 17:41:24;;;;;;;;;;;20.10;29.70;;;;;;8344512;28;19929;-46
2022/04/16 17:45:24;;;;;;;;;;;20.10;29.30;;;;;;8343801;28;19927;-43
2022/04/16 17:49:25;;;;;;;;;;;20.00;29.50;;;;;;8332319;28;19956;-43
2022/04/16 17:53:25;;;;;;;;;;;20.00;29.50;;;;;;8351560;28;19932;-46
2022/04/16 18:02:05;;;;;;;;;;;20.30;31.00;;;;;;8375937;28;20043;-45
2022/04/16 18:15:22;;;;;;;;;;;21.10;31.80;;;;;;8346117;28;20285;-47
2022/04/16 18:19:22;;;;;;;;;;;21.10;29.90;;;;;;8345508;28;19944;-47
2022/04/16 18:23:23;;;;;;;;;;;20.90;29.10;;;;;;8344346;28;19921;-45
2022/04/16 18:27:23;;;;;;;;;;;20.70;28.80;;;;;;8348343;28;20366;-52
2022/04/16 18:31:24;;;;;;;;;;;20.40;28.20;;;;;;8348123;28;19940;-47
2022/04/16 18:35:26;;;;;;;;;;;20.30;28.20;;;;;;8359482;28;19928;-45
2022/04/16 18:39:26;;;;;;;;;;;20.20;28.10;;;;;;8360501;28;19917;-45
2022/04/16 18:43:26;;;;;;;;;;;20.20;28.20;;;;;;8339320;28;19924;-45
2022/04/16 18:47:27;;;;;;;;;;;20.10;28.30;;;;;;8323088;28;19928;-46
2022/04/16 18:51:28;;;;;;;;;;;20.10;28.10;;;;;;8346446;28;20663;-47
2022/04/16 18:55:28;;;;;;;;;;;20.00;28.00;;;;;;8343485;28;19964;-49
2022/04/16 18:59:29;;;;;;;;;;;19.90;27.90;;;;;;8339873;28;20369;-47
2022/04/16 19:07:49;;;;;;;;;;;20.20;30.30;;;;;;8347429;28;19959;-50
2022/04/16 19:11:50;;;;;;;;;;;20.40;30.20;;;;;;8334551;28;19925;-49
2022/04/16 19:15:50;;;;;;;;;;;20.70;30.10;;;;;;8337379;28;19971;-48
2022/04/16 19:19:51;;;;;;;;;;;20.90;30.20;;;;;;8333022;28;19917;-43
2022/04/16 19:23:51;;;;;;;;;;;21.00;30.20;;;;;;8335889;28;19917;-43
2022/04/16 19:27:52;;;;;;;;;;;21.10;30.40;;;;;;8338882;28;19917;-50
2022/04/16 19:31:53;;;;;;;;;;;21.30;30.60;;;;;;8341943;28;19937;-47
2022/04/16 19:35:54;;;;;;;;;;;21.30;30.70;;;;;;8348566;28;20345;-46
2022/04/16 19:39:54;;;;;;;;;;;21.40;30.70;;;;;;8353148;28;19917;-44
2022/04/16 19:43:55;;;;;;;;;;;21.40;30.90;;;;;;8358718;28;19979;-50
2022/04/16 19:47:55;;;;;;;;;;;21.50;31.10;;;;;;8352069;28;19928;-45
2022/04/16 19:51:56;;;;;;;;;;;21.50;31.30;;;;;;8350227;28;19928;-45
2022/04/16 19:55:56;;;;;;;;;;;21.60;31.60;;;;;;8356757;28;19931;-44
2022/04/16 19:59:56;;;;;;;;;;;21.60;31.80;;;;;;8357426;28;19962;-49
2022/04/16 20:03:57;;;;;;;;;;;21.60;31.80;;;;;;8358183;28;20415;-45
2022/04/16 20:10:42;;;;;;;;;;;21.70;31.80;;;;;;8357860;28;20011;-48
2022/04/16 20:12:18;;;;;;;;;;;21.50;29.50;;;;;;8358063;28;20021;-46
2022/04/16 20:16:18;;;;;;;;;;;21.20;29.80;;;;;;8354404;28;19964;-47
2022/04/16 20:20:31;;;;;;;;;;;21.10;31.60;;;;;;8353362;28;19916;-46
2022/04/16 20:24:31;;;;;;;;;;;21.20;31.50;;;;;;8350491;28;19990;-47
2022/04/16 20:28:33;;;;;;;;;;;21.30;31.00;;;;;;8354331;28;19928;-45
2022/04/16 20:32:34;;;;;;;;;;;21.30;31.60;;;;;;8356875;28;19917;-47
2022/04/16 20:36:34;;;;;;;;;;;21.30;31.70;;;;;;8351951;28;19979;-46
2022/04/16 20:49:13;;;;;;;;;;;21.50;32.00;;;;;;8356575;28;19939;-49
2022/04/16 20:53:14;;;;;;;;;;;21.60;32.20;;;;;;8363479;28;19925;-45
2022/04/16 20:57:15;;;;;;;;;;;21.70;32.40;;;;;;8362650;28;19921;-47
2022/04/16 21:01:15;;;;;;;;;;;21.70;32.70;;;;;;8362887;28;19917;-45
2022/04/16 21:05:16;;;;;;;;;;;21.70;32.60;;;;;;8363295;28;20352;-45
2022/04/16 21:09:17;;;;;;;;;;;21.80;32.70;;;;;;8362859;28;19924;-44
2022/04/16 21:13:17;;;;;;;;;;;21.80;32.80;;;;;;8354954;28;19944;-48
2022/04/16 21:17:18;;;;;;;;;;;21.80;32.90;;;;;;8359785;28;19974;-50
2022/04/16 21:21:18;;;;;;;;;;;21.80;33.20;;;;;;8356693;28;19936;-46
2022/04/16 21:25:22;;;;;;;;;;;21.80;33.10;;;;;;8362211;28;19917;-47
2022/04/16 21:29:22;;;;;;;;;;;21.60;30.80;;;;;;8354049;28;19924;-49
2022/04/16 21:33:23;;;;;;;;;;;21.50;32.70;;;;;;8345285;28;19924;-46
2022/04/16 21:37:23;;;;;;;;;;;21.60;32.60;;;;;;8347967;28;20023;-46
2022/04/16 21:41:25;;;;;;;;;;;21.60;32.70;;;;;;8350233;28;20401;-46
2022/04/16 21:45:26;;;;;;;;;;;21.80;32.90;;;;;;8348762;28;19925;-45
2022/04/16 21:49:29;;;;;;;;;;;21.80;32.90;;;;;;8346558;28;20656;-47
2022/04/16 21:53:30;;;;;;;;;;;21.90;33.10;;;;;;8342886;28;19937;-46
2022/04/16 21:57:30;;;;;;;;;;;21.90;33.00;;;;;;8339141;28;20356;-46
2022/04/16 22:01:44;;;;;;;;;;;22.00;33.20;;;;;;8338981;28;20011;-46
2022/04/16 22:05:44;;;;;;;;;;;22.00;33.20;;;;;;8360335;28;19925;-49
2022/04/16 22:09:45;;;;;;;;;;;22.10;33.20;;;;;;8359125;28;20304;-46
2022/04/16 22:13:45;;;;;;;;;;;22.10;33.20;;;;;;8347634;28;19971;-47
2022/04/16 22:17:46;;;;;;;;;;;22.10;33.20;;;;;;8342422;28;20336;-46
2022/04/16 22:21:46;;;;;;;;;;;22.10;33.50;;;;;;8339966;28;19917;-47
2022/04/16 22:25:47;;;;;;;;;;;22.10;33.60;;;;;;8330474;28;20012;-46
2022/04/16 22:29:48;;;;;;;;;;;22.00;33.30;;;;;;8348211;28;20297;-45
2022/04/16 22:33:49;;;;;;;;;;;22.00;33.20;;;;;;8355189;28;20278;-47
2022/04/16 22:42:08;;;;;;;;;;;21.90;33.00;;;;;;8357234;28;19994;-51
2022/04/16 22:46:09;;;;;;;;;;;21.90;32.90;;;;;;8363066;28;20007;-48
2022/04/16 22:50:10;;;;;;;;;;;21.80;32.80;;;;;;8364651;28;20317;-46
2022/04/16 22:54:11;;;;;;;;;;;21.80;32.90;;;;;;8363729;28;19962;-48
2022/04/16 22:58:12;;;;;;;;;;;21.80;32.70;;;;;;8363969;28;20377;-47
2022/04/16 23:02:12;;;;;;;;;;;21.70;32.70;;;;;;8363873;28;20003;-46
2022/04/16 23:06:13;;;;;;;;;;;21.80;32.60;;;;;;8363471;28;19920;-47
2022/04/16 23:10:13;;;;;;;;;;;21.70;32.50;;;;;;8363362;28;20015;-47
2022/04/16 23:14:13;;;;;;;;;;;21.60;32.50;;;;;;8363319;28;20019;-45
2022/04/16 23:18:14;;;;;;;;;;;21.60;32.50;;;;;;8362949;28;19916;-49
2022/04/16 23:22:14;;;;;;;;;;;21.60;32.40;;;;;;8363432;28;20385;-46
2022/04/16 23:26:15;;;;;;;;;;;21.60;32.40;;;;;;8363406;28;19927;-46
2022/04/16 23:30:15;;;;;;;;;;;21.60;32.40;;;;;;8362474;28;19932;-45
2022/04/16 23:34:16;;;;;;;;;;;21.50;32.40;;;;;;8363003;28;19917;-46
2022/04/16 23:38:18;;;;;;;;;;;21.50;32.30;;;;;;8362998;28;19920;-45
2022/04/16 23:42:18;;;;;;;;;;;21.50;32.30;;;;;;8362226;28;19916;-45
2022/04/16 23:50:41;;;;;;;;;;;21.40;32.20;;;;;;8364746;28;20369;-47
2022/04/16 23:54:41;;;;;;;;;;;21.40;32.20;;;;;;8362997;28;19917;-46
2022/04/16 23:58:42;;;;;;;;;;;21.40;32.20;;;;;;8362893;28;19912;-45
